Terminal Aerodrome Forecast
Issued by NWS

Home | Current Version | Previous Version | Text Only | Print | Product List | Glossary On
Versions: 1 2 3 4 5 6 7 8 9 10 11 12 13 14 15 16 17
481
FTUS46 KEKA 222327
TAFUKI
TAF
KUKI 222327Z 2300/2324 31009G15KT P6SM VCSH SCT020 BKN040 OVC080
     FM230400 33008KT P6SM SCT020 SCT060
     FM230800 31004KT 6SM BR SCT015
     FM231400 31003KT P6SM SCT020 SCT250
     FM231900 33006KT P6SM BKN250=

USA.gov is the U.S. government's official web portal to all federal, state and local government web resources and services.